Ignacio Pérez

Scout - Gijón
6 Jan 2028
Thursday
Process

Personality

Adaptability (11) Ambition (15) Controversy (2) Loyalty (15) Pressure (13) Professionalism (5) Sportsmanship (3) Temperament (14)

Profile

Coaching Style Democratic
License Continental A
Determination 11
Man Management 7
Motivating 11
Discipline 13
Job Satisfaction
100%
Fatigue
0%
Role Scout
Wage 84.7K p/w
Contract 14.03.2028

Performance

Behaviour Good
Training Effectiveness
44%
Player Development
30%
Injury Prevention
65%
Tactical Implementation
40%

Recent Events

Contract negotiation started now
Attended a recruitment meeting now
Contract negotiation started 7d ago
Contract negotiation started 7d ago
Contract negotiation started 7d ago
Contract negotiation started 7d ago
Contract negotiation started 7d ago
Contract negotiation started 7d ago

Currently Monitoring

47
Player Club Status Ability Confidence Watched Last Observed Latest Vote
Lucas Alcázar Castellón Active 131 / 129 55% 1 01.06.2027 -
Christos Mouzakitis Hull City Active 133 / 135 40% 1 29.05.2027 -
Kazunari Kita Real Sociedad Active 106 / 114 40% 1 29.05.2027 -
Jofre Torrents Ajax Active 122 / 137 40% 2 28.05.2027 -
Davide Bartesaghi AC Milan Active 141 / 141 40% 2 28.05.2027 -
Joel McGregor Swindon Town Active 101 / 108 40% 2 26.05.2027 -
Leandro Martins Benfica Active 97 / 100 40% 1 23.05.2027 -
Percy Jali Free State Stars Active 92 / 89 40% 1 23.05.2027 -
Kevin Vazquez Cruz Azul Active 124 / 143 40% 3 22.05.2027 -
Bernardo Lima Porto Active 92 / 106 40% 1 22.05.2027 -
Diego Lainez Tigres Active 140 / 144 40% 4 21.05.2027 -
Ali Ahmed Norwich City Active 133 / 131 40% 1 20.05.2027 -
Daniel Vernattus Metalist Active 89 / 95 40% 1 19.05.2027 -
Jack Rudoni Coventry City Active 140 / 138 40% 2 18.05.2027 -
Pablo Torre Mallorca Active 155 / 133 40% 1 18.05.2027 -
Aimar Osasuna Active 143 / 141 40% 6 17.05.2027 -
Erick Sánchez OGC Nice Active 152 / 146 40% 2 16.05.2027 -
Morgan Whittaker Middlesbrough Active 123 / 120 40% 3 16.05.2027 -
Andrés Martín Racing Santander Active 138 / 131 40% 4 15.05.2027 -
David Larrubia Málaga Active 140 / 125 40% 1 15.05.2027 -
José Pachuca Puebla Active 106 / 96 40% 2 13.05.2027 -
Josh King Chelsea Active 128 / 141 40% 1 13.05.2027 -
Tyrhys Dolan Espanyol Active 146 / 148 40% 2 10.05.2027 -
Ozziel Herrera Tigres Active 133 / 136 40% 2 07.05.2027 -
Marcel Ruiz RC Lens Active 135 / 147 40% 2 03.05.2027 -
Jack McGlynn Stoke City Active 137 / 123 40% 1 03.05.2027 -
Abel Ruiz Girona Active 135 / 134 40% 1 02.05.2027 -
Khalis Merah Toulouse FC Active 132 / 124 40% 3 30.04.2027 -
João Teixeira Porto Active 118 / 126 40% 2 27.04.2027 -
Fran García Betis Active 156 / 154 40% 1 26.04.2027 -
Ez Abde Girona Active 159 / 146 40% 1 23.04.2027 -
Jonathan Dubasin Osasuna Active 132 / 147 40% 1 21.04.2027 -
Noah Nartey Olympique Lyonnais Active 123 / 129 40% 1 18.04.2027 -
Christ Inao Oulaï Fiorentina Active 133 / 143 40% 2 14.04.2027 -
Lucas Høgsberg RC Strasbourg Active 137 / 131 40% 1 14.04.2027 -
Keagan Tau Ajax Cape Town Active 79 / 111 40% 1 09.04.2027 -
Giacomo Raspadori Atalanta Active 153 / 146 40% 1 08.04.2027 -
Carlos Vicente Birmingham Active 152 / 135 40% 1 06.04.2027 -
Jon Garro Real Sociedad Active 92 / 87 40% 2 01.04.2027 -
Matías Gómez Granada Active 102 / 114 40% 1 30.03.2027 -
Yusi Alavés Active 120 / 120 40% 1 21.03.2027 -
Ernie Weaver AFC Wimbledon Active 114 / 113 40% 1 21.03.2027 -
David Ozoh Derby County Active 120 / 135 40% 1 19.03.2027 -
Toni Tamarit Alverca Active 124 / 110 40% 1 19.03.2027 -
Cemran Dansin Orlando Pirates Active 96 / 100 40% 1 18.03.2027 -
Caleb Yirenkyi Coventry City Active 131 / 150 40% 1 18.03.2027 -
Richard Ledezma Guadalajara Active 137 / 150 40% 1 17.03.2027 -